ADDS METAR Data INFO
IDs: Format: Raw Decoded Include TAF

Data at: 0733 UTC 21 Jul 2018

PATE 210656Z AUTO 24005KT 10SM OVC020 11/08 A3021 RMK AO2 SLP234 T01060083
PATE 210556Z AUTO 24005KT 10SM OVC020 11/08 A3021 RMK AO2 SLP235 T01060083 10122 20100 56006
PATE 210456Z AUTO 28004KT 10SM OVC016 10/08 A3022 RMK AO2 SLP237 T01000083
PATE 210433Z AUTO 33005KT 9SM SCT009 OVC016 10/08 A3022 RMK AO2
PATE 210423Z AUTO 33006KT 10SM BKN009 OVC016 10/08 A3022 RMK AO2 CIG 008V013
PATE 210356Z AUTO 33005KT 10SM BKN012 OVC018 10/08 A3022 RMK AO2 SLP239 T01000083
PATE 210349Z AUTO 32005KT 10SM BKN011 OVC018 10/08 A3022 RMK AO2 CIG 008V013
PATE 210339Z AUTO 32004KT 10SM SCT008 OVC016 10/08 A3023 RMK AO2
PATE 210323Z AUTO 32004KT 10SM BKN008 OVC016 10/08 A3023 RMK AO2 CIG 007V012
PATE 210310Z AUTO 00000KT 10SM SCT008 OVC016 10/08 A3023 RMK AO2
PATE 210256Z AUTO 32006KT 10SM BKN008 OVC014 10/08 A3023 RMK AO2 CIG 007V011 SLP241 T01000083 53002
PATE 210239Z AUTO 30007KT 10SM BKN008 OVC014 10/08 A3023 RMK AO2
PATE 210213Z AUTO 31008KT 10SM FEW008 OVC017 11/08 A3023 RMK AO2
PATE 210156Z AUTO 28008KT 10SM FEW012 OVC021 11/08 A3022 RMK AO2 SLP240 T01110078
PATE 210056Z AUTO 26010KT 10SM OVC021 12/07 A3022 RMK AO2 SLP239 T01170072
PATE 202356Z AUTO 24010KT 10SM OVC019 12/08 A3022 RMK AO2 SLP239 T01170078 10117 20089 58003
PATE 202311Z AUTO 23011KT 10SM OVC015 11/08 A3022 RMK AO2
PATE 202256Z AUTO 23011KT 10SM OVC013 11/08 A3023 RMK AO2 SLP240 T01110078
PATE 202156Z AUTO 24010KT 10SM OVC011 11/08 A3023 RMK AO2 SLP243 T01060078
PATE 202141Z AUTO 24011KT 10SM OVC011 11/08 A3023 RMK AO2
PATE 202056Z AUTO 25011KT 10SM OVC009 10/08 A3023 RMK AO2 CIG 007V013 SLP242 T01000078 51003
PATE 202053Z AUTO 25010KT 9SM OVC009 10/08 A3023 RMK AO2 CIG 007V013
PATE 202004Z AUTO 24009KT 10SM OVC011 10/08 A3023 RMK AO2
PATE 201956Z AUTO 24009KT 10SM BKN009 OVC014 10/08 A3023 RMK AO2 CIG 006V011 SLP241 T01000083
PATE 201948Z AUTO 23009KT 9SM BKN009 OVC015 10/08 A3023 RMK AO2 CIG 004V012
PATE 201856Z AUTO 23007KT 10SM FEW009 BKN014 OVC020 09/08 A3022 RMK AO2 SLP239 T00940083
PATE 201820Z AUTO 23005KT 10SM FEW006 OVC010 09/08 A3022 RMK AO2
PATE 201756Z AUTO 23007KT 10SM OVC010 09/08 A3022 RMK AO2 CIG 007V012 SLP239 60000 T00890078 10089 20083 57001
PATE 201656Z AUTO 23009KT 9SM OVC010 09/08 A3023 RMK AO2 CIG 007V011 SLP240 T00890078
PATE 201556Z AUTO 22008KT 10SM OVC010 09/08 A3022 RMK AO2 RAE1459 SLP239 P0000 T00890078
PATE 201456Z AUTO 23006KT 3SM -RA BR FEW003 OVC010 08/08 A3023 RMK AO2 RAB12 CIG 006V013 SLP240 P0000 60000 T00830078 50000
PATE 201454Z AUTO 23006KT 1 3/4SM -RA BR FEW003 OVC010 08/08 A3023 RMK AO2 RAB12 CIG 006V013 P0000
PATE 201451Z AUTO 23007KT 1SM -RA BR FEW003 BKN007 OVC013 08/08 A3023 RMK AO2 RAB12 CIG 006V010 P0000
PATE 201436Z AUTO 22008KT 1/2SM -RA FG FEW003 BKN007 OVC013 08/08 A3022 RMK AO2 RAB12 CIG 005V011 P0000
PATE 201414Z AUTO 22008KT 1/2SM -RA FG OVC005 08/08 A3023 RMK AO2 RAB12 CIG 002V011 P0000
PATE 201411Z AUTO 22008KT 1SM BR BKN005 OVC010 08/08 A3023 RMK AO2 CIG 003V009
PATE 201408Z AUTO 22008KT 1 3/4SM BR OVC007 08/08 A3023 RMK AO2 CIG 003V010
PATE 201356Z AUTO 22009KT 4SM BR OVC009 08/08 A3023 RMK AO2 RAE24 CIG 003V013 SLP241 P0000 T00830078
PATE 201327Z AUTO 23008KT 3SM BR OVC007 08/08 A3023 RMK AO2 RAE24 CIG 002V009 P0000
PATE 201316Z AUTO 22009KT 2SM -RA BR OVC005 08/08 A3023 RMK AO2 CIG 002V008 P0000
PATE 201307Z AUTO 22009KT 1 1/4SM -RA BR OVC003 08/08 A3022 RMK AO2 P0000
PATE 201256Z AUTO 23012KT 2 1/2SM -RA BR OVC003 08/08 A3022 RMK AO2 VIS 1 3/4V3 RAB47 SLP240 P0000 T00830083
PATE 201246Z AUTO 23011KT 2 1/2SM BR OVC003 09/08 A3022 RMK AO2
PATE 201223Z AUTO 21009KT 5SM BR BKN003 OVC007 09/08 A3023 RMK AO2 CIG 002V006
PATE 201156Z AUTO 22011KT 7SM OVC007 09/08 A3023 RMK AO2 CIG 003V010 SLP240 60000 70002 T00890083 10094 20089 58002
PATE 201056Z AUTO 20009KT 9SM OVC005 09/09 A3023 RMK AO2 SLP241 T00940089
PATE 200956Z AUTO 19008KT 10SM OVC005 09/09 A3023 RMK AO2 SLP243 T00940089
PATE 200856Z AUTO 21007KT 10SM OVC005 09/09 A3023 RMK AO2 RAE27 SLP242 P0000 60000 T00940089 401000072 51003
PATE 200853Z AUTO 21007KT 10SM OVC005 09/09 A3023 RMK AO2 RAE27 P0000 401000072
PATE 200839Z AUTO 20009KT 5SM BR OVC003 09/09 A3023 RMK AO2 RAE27 P0000
PATE 200815Z AUTO 20009KT 2 1/2SM -RA BR OVC003 09/09 A3023 RMK AO2 VIS 2V3 P0000
PATE 200804Z AUTO 20008KT 1 1/2SM -RA BR OVC003 09/09 A3023 RMK AO2 P0000
PATE 200756Z AUTO 21008KT 1SM -RA BR OVC003 09/09 A3023 RMK AO2 RAB33 SLP240 P0000 T00940089
PATE 200748Z AUTO 21007KT 3/4SM -RA BR OVC003 09/09 A3023 RMK AO2 RAB33 P0000
PATE 200730Z AUTO 21009KT 1 1/2SM BR OVC003 09/09 A3022 RMK AO2
PATE 200723Z AUTO 21009KT 2SM BR OVC003 09/09 A3022 RMK AO2
PATE 200656Z AUTO 21011KT 10SM OVC003 09/09 A3022 RMK AO2 SLP239 T00940089
PATE 200650Z AUTO 20012KT 3SM BR OVC003 09/09 A3022 RMK AO2
PATE 200640Z AUTO 21010KT 1 3/4SM BR OVC003 09/09 A3022 RMK AO2
PATE 200556Z AUTO 21012KT 9SM OVC003 09/09 A3021 RMK AO2 SLP236 60000 T00940089 10100 20089 58001
PATE 200456Z AUTO 21009KT 7SM OVC003 09/09 A3022 RMK AO2 SLP237 T00940089
PATE 200451Z AUTO 20011KT 6SM BR OVC003 09/09 A3022 RMK AO2
PATE 200443Z AUTO 20009KT 6SM BR OVC005 09/09 A3022 RMK AO2 CIG 003V010
PATE 200413Z AUTO 21011KT 10SM BKN009 OVC012 10/09 A3021 RMK AO2 CIG 007V010
PATE 200356Z AUTO 23010KT 10SM OVC011 10/08 A3022 RMK AO2 SLP238 T01000083
PATE 200330Z AUTO 22009KT 10SM OVC013 10/08 A3021 RMK AO2
PATE 200316Z AUTO 21009KT 10SM OVC016 10/08 A3021 RMK AO2
PATE 200256Z AUTO 22010KT 10SM BKN014 OVC018 10/08 A3022 RMK AO2 RAB11E23 SLP237 P0000 60000 T01000083 51002
PATE 200244Z AUTO 22011KT 10SM SCT009 OVC014 10/08 A3022 RMK AO2 RAB11E23 P0000
PATE 200236Z AUTO 22011KT 10SM BKN006 OVC014 10/08 A3022 RMK AO2 RAB11E23 CIG 003V009 P0000
PATE 200228Z AUTO 22008KT 10SM SCT004 OVC010 09/08 A3022 RMK AO2 RAB11E23 CIG 007V012 P0000
PATE 200217Z AUTO 23009KT 3SM -RA BR BKN004 OVC008 09/09 A3021 RMK AO2 RAB11 P0000
PATE 200209Z AUTO 24009KT 1 3/4SM BR BKN004 OVC008 09/09 A3021 RMK AO2
PATE 200206Z AUTO 23008KT 3SM BR BKN004 OVC008 09/09 A3022 RMK AO2
PATE 200156Z AUTO 24009KT 1 3/4SM BR OVC004 09/09 A3022 RMK AO2 VIS 1V3 SLP237 T00940089
PATE 200145Z AUTO 24008KT 3SM BR OVC004 09/09 A3021 RMK AO2
PATE 200126Z AUTO 23006KT 1 1/4SM BR OVC004 09/08 A3021 RMK AO2
PATE 200111Z AUTO 22006KT 2SM BR OVC004 09/09 A3021 RMK AO2 VIS 1 1/2V3 CIG 003V008
PATE 200056Z AUTO 24005KT 6SM BR OVC004 09/08 A3021 RMK AO2 RAE2358 SLP236 P0000 T00940083
PATE 200014Z AUTO 24007KT 3SM BR BKN004 OVC010 09/08 A3022 RMK AO2 RAE2358 CIG 003V008 P0000
PATE 200003Z AUTO 22007KT 2SM BR BKN006 OVC010 09/08 A3021 RMK AO2 VIS 1 1/4V5 RAE2358 CIG 003V008 P0000
PATE 192356Z AUTO 21006KT 1 3/4SM -RA BR BKN006 OVC012 09/08 A3021 RMK AO2 VIS 1 1/4V4 RAE05B49 CIG 003V009 SLP235 P0000 60001 T00890083 10089 20078 51009
PATE 192329Z AUTO 25004KT 1 3/4SM BR OVC008 09/08 A3021 RMK AO2 RAE05 CIG 005V009 P0000
PATE 192256Z AUTO 25006KT 5SM -RA BR OVC008 09/08 A3020 RMK AO2 RAB13E25B41 CIG 007V012 SLP233 P0001 T00890078
PATE 192228Z AUTO 22006KT 6SM BR FEW004 BKN013 OVC031 09/08 A3020 RMK AO2 RAB13E25 P0000
PATE 192211Z AUTO 22007KT 5SM BR BKN004 BKN007 OVC031 09/08 A3019 RMK AO2
PATE 192156Z AUTO 22007KT 4SM BR OVC007 08/08 A3019 RMK AO2 RAB00E12 CIG 003V011 SLP228 P0000 T00830078
PATE 192056Z AUTO 21005KT 4SM BR OVC007 08/08 A3018 RMK AO2 RAB29E56 CIG 004V010 SLP225 P0000 60000 T00830078 51012
PATE 192037Z AUTO 26003KT 3SM -RA BR OVC007 08/08 A3018 RMK AO2 RAB29 CIG 004V010 P0000
PATE 192026Z AUTO 23003KT 2 1/2SM BR BKN005 OVC008 08/07 A3018 RMK AO2 VIS 2V5 CIG 004V008
PATE 192015Z AUTO 20003KT 4SM BR OVC008 08/08 A3018 RMK AO2 CIG 004V011
PATE 191956Z AUTO 20004KT 10SM BKN010 OVC014 08/07 A3017 RMK AO2 RAE06 CIG 007V012 SLP222 P0000 T00830072
PATE 191937Z AUTO 25004KT 10SM SCT010 OVC014 08/08 A3017 RMK AO2 RAE06 P0000